sensor_id;sensor_type;location;lat;lon;timestamp;P1;durP1;ratioP1;P2;durP2;ratioP2
72920;SDS011;61064;51.654;5.476;2023-06-22T00:01:27;7.53;;;3.75;;
72920;SDS011;61064;51.654;5.476;2023-06-22T00:03:52;9.77;;;4.60;;
72920;SDS011;61064;51.654;5.476;2023-06-22T00:06:18;11.57;;;4.77;;
72920;SDS011;61064;51.654;5.476;2023-06-22T00:08:43;10.00;;;4.50;;
72920;SDS011;61064;51.654;5.476;2023-06-22T00:11:08;8.30;;;4.70;;
72920;SDS011;61064;51.654;5.476;2023-06-22T00:13:34;8.73;;;4.63;;
72920;SDS011;61064;51.654;5.476;2023-06-22T00:15:59;10.03;;;5.00;;
72920;SDS011;61064;51.654;5.476;2023-06-22T00:18:25;12.30;;;5.20;;
72920;SDS011;61064;51.654;5.476;2023-06-22T00:20:53;10.05;;;5.15;;
72920;SDS011;61064;51.654;5.476;2023-06-22T00:23:22;9.40;;;4.95;;
72920;SDS011;61064;51.654;5.476;2023-06-22T00:25:50;11.18;;;5.38;;
72920;SDS011;61064;51.654;5.476;2023-06-22T00:28:15;10.93;;;5.23;;
72920;SDS011;61064;51.654;5.476;2023-06-22T00:30:41;9.43;;;5.10;;
72920;SDS011;61064;51.654;5.476;2023-06-22T00:33:06;10.95;;;5.90;;
72920;SDS011;61064;51.654;5.476;2023-06-22T00:35:32;10.57;;;5.10;;
72920;SDS011;61064;51.654;5.476;2023-06-22T00:37:59;9.73;;;5.30;;
72920;SDS011;61064;51.654;5.476;2023-06-22T00:40:30;10.50;;;5.45;;
72920;SDS011;61064;51.654;5.476;2023-06-22T00:42:56;10.15;;;5.75;;
72920;SDS011;61064;51.654;5.476;2023-06-22T00:45:23;10.23;;;5.47;;
72920;SDS011;61064;51.654;5.476;2023-06-22T00:47:52;15.48;;;5.68;;
72920;SDS011;61064;51.654;5.476;2023-06-22T00:50:21;9.68;;;5.55;;
72920;SDS011;61064;51.654;5.476;2023-06-22T00:52:48;11.93;;;5.95;;
72920;SDS011;61064;51.654;5.476;2023-06-22T00:55:17;10.68;;;5.90;;
72920;SDS011;61064;51.654;5.476;2023-06-22T00:57:47;10.37;;;5.40;;
72920;SDS011;61064;51.654;5.476;2023-06-22T01:00:13;10.32;;;5.93;;
72920;SDS011;61064;51.654;5.476;2023-06-22T01:02:42;10.50;;;5.80;;
72920;SDS011;61064;51.654;5.476;2023-06-22T01:05:10;11.27;;;5.47;;
72920;SDS011;61064;51.654;5.476;2023-06-22T01:08:00;10.85;;;5.82;;
72920;SDS011;61064;51.654;5.476;2023-06-22T01:10:50;11.97;;;5.63;;
72920;SDS011;61064;51.654;5.476;2023-06-22T01:13:32;10.10;;;5.53;;
72920;SDS011;61064;51.654;5.476;2023-06-22T01:16:08;11.60;;;6.10;;
72920;SDS011;61064;51.654;5.476;2023-06-22T01:18:57;9.70;;;5.18;;
72920;SDS011;61064;51.654;5.476;2023-06-22T01:21:44;11.93;;;5.88;;
72920;SDS011;61064;51.654;5.476;2023-06-22T01:26:48;11.77;;;5.85;;
72920;SDS011;61064;51.654;5.476;2023-06-22T01:29:46;12.20;;;6.25;;
72920;SDS011;61064;51.654;5.476;2023-06-22T01:32:15;11.43;;;6.07;;
72920;SDS011;61064;51.654;5.476;2023-06-22T01:34:41;12.63;;;6.78;;
72920;SDS011;61064;51.654;5.476;2023-06-22T01:37:07;12.90;;;6.23;;
72920;SDS011;61064;51.654;5.476;2023-06-22T01:39:33;10.77;;;6.10;;
72920;SDS011;61064;51.654;5.476;2023-06-22T01:42:00;10.75;;;6.03;;
72920;SDS011;61064;51.654;5.476;2023-06-22T01:44:27;10.55;;;6.35;;
72920;SDS011;61064;51.654;5.476;2023-06-22T01:46:53;11.53;;;6.53;;
72920;SDS011;61064;51.654;5.476;2023-06-22T01:49:20;12.45;;;6.40;;
72920;SDS011;61064;51.654;5.476;2023-06-22T01:51:45;12.23;;;7.10;;
72920;SDS011;61064;51.654;5.476;2023-06-22T01:54:11;11.63;;;7.07;;
72920;SDS011;61064;51.654;5.476;2023-06-22T01:56:36;13.03;;;7.30;;
72920;SDS011;61064;51.654;5.476;2023-06-22T01:59:20;12.50;;;7.15;;
72920;SDS011;61064;51.654;5.476;2023-06-22T02:02:02;12.40;;;6.75;;
72920;SDS011;61064;51.654;5.476;2023-06-22T02:04:34;11.47;;;6.97;;
72920;SDS011;61064;51.654;5.476;2023-06-22T02:07:02;13.57;;;7.45;;
72920;SDS011;61064;51.654;5.476;2023-06-22T02:09:34;11.65;;;7.20;;
72920;SDS011;61064;51.654;5.476;2023-06-22T02:12:02;11.80;;;6.43;;
72920;SDS011;61064;51.654;5.476;2023-06-22T02:14:30;13.40;;;7.47;;
72920;SDS011;61064;51.654;5.476;2023-06-22T02:16:56;14.50;;;7.93;;
72920;SDS011;61064;51.654;5.476;2023-06-22T02:19:26;13.93;;;7.93;;
72920;SDS011;61064;51.654;5.476;2023-06-22T02:21:53;14.43;;;8.05;;
72920;SDS011;61064;51.654;5.476;2023-06-22T02:24:18;13.25;;;8.00;;
72920;SDS011;61064;51.654;5.476;2023-06-22T02:26:44;13.87;;;7.63;;
72920;SDS011;61064;51.654;5.476;2023-06-22T02:29:10;12.90;;;8.07;;
72920;SDS011;61064;51.654;5.476;2023-06-22T02:31:36;14.90;;;8.83;;
72920;SDS011;61064;51.654;5.476;2023-06-22T02:34:01;15.63;;;8.73;;
72920;SDS011;61064;51.654;5.476;2023-06-22T02:36:27;12.67;;;8.13;;
72920;SDS011;61064;51.654;5.476;2023-06-22T02:38:55;14.55;;;9.10;;
72920;SDS011;61064;51.654;5.476;2023-06-22T02:41:25;14.50;;;8.90;;
72920;SDS011;61064;51.654;5.476;2023-06-22T02:43:51;13.00;;;8.23;;
72920;SDS011;61064;51.654;5.476;2023-06-22T02:46:16;13.82;;;7.88;;
72920;SDS011;61064;51.654;5.476;2023-06-22T02:48:41;13.47;;;8.37;;
72920;SDS011;61064;51.654;5.476;2023-06-22T02:51:07;16.80;;;8.70;;
72920;SDS011;61064;51.654;5.476;2023-06-22T02:53:33;14.85;;;8.75;;
72920;SDS011;61064;51.654;5.476;2023-06-22T02:55:58;14.57;;;8.43;;
72920;SDS011;61064;51.654;5.476;2023-06-22T02:58:26;16.17;;;8.70;;
72920;SDS011;61064;51.654;5.476;2023-06-22T03:00:52;15.00;;;8.93;;
72920;SDS011;61064;51.654;5.476;2023-06-22T03:03:18;13.27;;;8.45;;
72920;SDS011;61064;51.654;5.476;2023-06-22T03:05:44;15.68;;;8.63;;
72920;SDS011;61064;51.654;5.476;2023-06-22T03:08:09;17.07;;;9.67;;
72920;SDS011;61064;51.654;5.476;2023-06-22T03:10:35;14.03;;;8.83;;
72920;SDS011;61064;51.654;5.476;2023-06-22T03:13:00;16.30;;;9.07;;
72920;SDS011;61064;51.654;5.476;2023-06-22T03:15:25;15.50;;;9.27;;
72920;SDS011;61064;51.654;5.476;2023-06-22T03:17:54;18.30;;;9.40;;
72920;SDS011;61064;51.654;5.476;2023-06-22T03:20:19;14.40;;;8.93;;
72920;SDS011;61064;51.654;5.476;2023-06-22T03:22:44;17.20;;;9.70;;
72920;SDS011;61064;51.654;5.476;2023-06-22T03:25:10;16.60;;;9.73;;
72920;SDS011;61064;51.654;5.476;2023-06-22T03:27:37;16.25;;;9.00;;
72920;SDS011;61064;51.654;5.476;2023-06-22T03:30:03;17.13;;;9.13;;
72920;SDS011;61064;51.654;5.476;2023-06-22T03:32:29;16.30;;;9.43;;
72920;SDS011;61064;51.654;5.476;2023-06-22T03:34:54;16.40;;;9.70;;
72920;SDS011;61064;51.654;5.476;2023-06-22T03:37:23;16.83;;;10.00;;
72920;SDS011;61064;51.654;5.476;2023-06-22T03:39:52;18.13;;;9.90;;
72920;SDS011;61064;51.654;5.476;2023-06-22T03:42:18;18.47;;;9.90;;
72920;SDS011;61064;51.654;5.476;2023-06-22T03:44:43;17.20;;;10.07;;
72920;SDS011;61064;51.654;5.476;2023-06-22T03:47:08;15.00;;;9.57;;
72920;SDS011;61064;51.654;5.476;2023-06-22T03:49:34;16.10;;;9.70;;
72920;SDS011;61064;51.654;5.476;2023-06-22T03:52:00;16.75;;;9.88;;
72920;SDS011;61064;51.654;5.476;2023-06-22T03:54:27;15.48;;;9.98;;
72920;SDS011;61064;51.654;5.476;2023-06-22T03:56:53;18.70;;;10.27;;
72920;SDS011;61064;51.654;5.476;2023-06-22T03:59:19;16.67;;;9.60;;
72920;SDS011;61064;51.654;5.476;2023-06-22T04:01:44;16.33;;;9.47;;
72920;SDS011;61064;51.654;5.476;2023-06-22T04:04:10;15.65;;;9.20;;
72920;SDS011;61064;51.654;5.476;2023-06-22T04:06:36;15.80;;;10.50;;
72920;SDS011;61064;51.654;5.476;2023-06-22T04:09:01;17.33;;;9.77;;
72920;SDS011;61064;51.654;5.476;2023-06-22T04:11:28;15.68;;;9.90;;
72920;SDS011;61064;51.654;5.476;2023-06-22T04:13:53;20.10;;;11.10;;
72920;SDS011;61064;51.654;5.476;2023-06-22T04:16:18;17.60;;;9.70;;
72920;SDS011;61064;51.654;5.476;2023-06-22T04:18:44;15.45;;;9.68;;
72920;SDS011;61064;51.654;5.476;2023-06-22T04:21:10;15.87;;;10.03;;
72920;SDS011;61064;51.654;5.476;2023-06-22T04:23:35;17.67;;;9.50;;
72920;SDS011;61064;51.654;5.476;2023-06-22T04:26:00;18.00;;;10.17;;
72920;SDS011;61064;51.654;5.476;2023-06-22T04:28:26;18.75;;;10.23;;
72920;SDS011;61064;51.654;5.476;2023-06-22T04:30:51;17.47;;;9.60;;
72920;SDS011;61064;51.654;5.476;2023-06-22T04:33:16;17.53;;;9.03;;
72920;SDS011;61064;51.654;5.476;2023-06-22T04:35:44;14.53;;;8.43;;
72920;SDS011;61064;51.654;5.476;2023-06-22T04:38:11;16.08;;;8.95;;
72920;SDS011;61064;51.654;5.476;2023-06-22T04:40:38;15.30;;;9.30;;
72920;SDS011;61064;51.654;5.476;2023-06-22T04:43:04;15.77;;;8.88;;
72920;SDS011;61064;51.654;5.476;2023-06-22T04:45:31;13.47;;;7.90;;
72920;SDS011;61064;51.654;5.476;2023-06-22T04:47:57;15.52;;;8.48;;
72920;SDS011;61064;51.654;5.476;2023-06-22T04:50:22;15.55;;;8.23;;
72920;SDS011;61064;51.654;5.476;2023-06-22T04:52:48;14.60;;;8.17;;
72920;SDS011;61064;51.654;5.476;2023-06-22T04:55:15;16.50;;;8.85;;
72920;SDS011;61064;51.654;5.476;2023-06-22T04:57:48;14.75;;;9.13;;
72920;SDS011;61064;51.654;5.476;2023-06-22T05:00:22;16.35;;;9.05;;
72920;SDS011;61064;51.654;5.476;2023-06-22T05:02:49;13.53;;;8.30;;
72920;SDS011;61064;51.654;5.476;2023-06-22T05:05:15;15.80;;;8.30;;
72920;SDS011;61064;51.654;5.476;2023-06-22T05:07:44;17.30;;;8.43;;
72920;SDS011;61064;51.654;5.476;2023-06-22T05:10:13;19.35;;;8.20;;
72920;SDS011;61064;51.654;5.476;2023-06-22T05:12:39;15.90;;;8.20;;
72920;SDS011;61064;51.654;5.476;2023-06-22T05:15:05;15.00;;;8.77;;
72920;SDS011;61064;51.654;5.476;2023-06-22T05:17:34;15.17;;;8.60;;
72920;SDS011;61064;51.654;5.476;2023-06-22T05:20:01;17.05;;;8.88;;
72920;SDS011;61064;51.654;5.476;2023-06-22T05:22:27;17.25;;;9.60;;
72920;SDS011;61064;51.654;5.476;2023-06-22T05:24:52;17.40;;;9.60;;
72920;SDS011;61064;51.654;5.476;2023-06-22T05:27:18;15.47;;;8.83;;
72920;SDS011;61064;51.654;5.476;2023-06-22T05:29:43;16.77;;;8.83;;
72920;SDS011;61064;51.654;5.476;2023-06-22T05:32:08;15.73;;;9.43;;
72920;SDS011;61064;51.654;5.476;2023-06-22T05:34:34;15.13;;;9.32;;
72920;SDS011;61064;51.654;5.476;2023-06-22T05:36:59;13.80;;;9.40;;
72920;SDS011;61064;51.654;5.476;2023-06-22T05:39:25;16.90;;;9.43;;
72920;SDS011;61064;51.654;5.476;2023-06-22T05:41:51;16.33;;;9.70;;
72920;SDS011;61064;51.654;5.476;2023-06-22T05:44:16;15.33;;;10.00;;
72920;SDS011;61064;51.654;5.476;2023-06-22T05:46:42;16.67;;;10.00;;
72920;SDS011;61064;51.654;5.476;2023-06-22T05:49:09;15.73;;;9.80;;
72920;SDS011;61064;51.654;5.476;2023-06-22T05:51:35;15.50;;;10.60;;
72920;SDS011;61064;51.654;5.476;2023-06-22T05:54:01;18.73;;;10.70;;
72920;SDS011;61064;51.654;5.476;2023-06-22T05:56:26;16.30;;;10.27;;
72920;SDS011;61064;51.654;5.476;2023-06-22T05:58:51;17.00;;;10.33;;
72920;SDS011;61064;51.654;5.476;2023-06-22T06:01:17;15.63;;;10.77;;
72920;SDS011;61064;51.654;5.476;2023-06-22T06:03:42;15.27;;;10.03;;
72920;SDS011;61064;51.654;5.476;2023-06-22T06:06:07;17.03;;;10.47;;
72920;SDS011;61064;51.654;5.476;2023-06-22T06:08:33;18.92;;;11.10;;
72920;SDS011;61064;51.654;5.476;2023-06-22T06:10:58;16.87;;;10.67;;
72920;SDS011;61064;51.654;5.476;2023-06-22T06:13:24;19.30;;;11.37;;
72920;SDS011;61064;51.654;5.476;2023-06-22T06:15:49;19.83;;;10.80;;
72920;SDS011;61064;51.654;5.476;2023-06-22T06:18:20;19.17;;;11.10;;
72920;SDS011;61064;51.654;5.476;2023-06-22T06:20:45;19.50;;;11.13;;
72920;SDS011;61064;51.654;5.476;2023-06-22T06:23:11;19.47;;;11.53;;
72920;SDS011;61064;51.654;5.476;2023-06-22T06:25:36;17.40;;;11.23;;
72920;SDS011;61064;51.654;5.476;2023-06-22T06:28:01;18.30;;;11.47;;
72920;SDS011;61064;51.654;5.476;2023-06-22T06:30:27;18.13;;;11.82;;
72920;SDS011;61064;51.654;5.476;2023-06-22T06:32:52;17.63;;;11.53;;
72920;SDS011;61064;51.654;5.476;2023-06-22T06:35:17;18.10;;;11.40;;
72920;SDS011;61064;51.654;5.476;2023-06-22T06:37:44;21.23;;;12.40;;
72920;SDS011;61064;51.654;5.476;2023-06-22T06:40:11;19.23;;;12.13;;
72920;SDS011;61064;51.654;5.476;2023-06-22T06:42:40;17.65;;;11.98;;
72920;SDS011;61064;51.654;5.476;2023-06-22T06:45:09;19.25;;;12.18;;
72920;SDS011;61064;51.654;5.476;2023-06-22T06:47:40;18.85;;;11.50;;
72920;SDS011;61064;51.654;5.476;2023-06-22T06:50:06;20.17;;;12.83;;
72920;SDS011;61064;51.654;5.476;2023-06-22T06:52:32;19.27;;;12.50;;
72920;SDS011;61064;51.654;5.476;2023-06-22T06:54:58;21.00;;;12.67;;
72920;SDS011;61064;51.654;5.476;2023-06-22T06:57:24;20.27;;;12.73;;
72920;SDS011;61064;51.654;5.476;2023-06-22T06:59:54;19.05;;;12.88;;
72920;SDS011;61064;51.654;5.476;2023-06-22T07:02:20;19.63;;;12.60;;
72920;SDS011;61064;51.654;5.476;2023-06-22T07:04:46;21.08;;;12.80;;
72920;SDS011;61064;51.654;5.476;2023-06-22T07:07:11;20.03;;;13.00;;
72920;SDS011;61064;51.654;5.476;2023-06-22T07:09:40;21.27;;;13.17;;
72920;SDS011;61064;51.654;5.476;2023-06-22T07:12:05;17.98;;;12.50;;
72920;SDS011;61064;51.654;5.476;2023-06-22T07:14:31;20.38;;;12.75;;
72920;SDS011;61064;51.654;5.476;2023-06-22T07:16:57;20.63;;;13.33;;
72920;SDS011;61064;51.654;5.476;2023-06-22T07:19:29;18.63;;;12.98;;
72920;SDS011;61064;51.654;5.476;2023-06-22T07:21:55;20.73;;;13.73;;
72920;SDS011;61064;51.654;5.476;2023-06-22T07:24:21;18.20;;;12.67;;
72920;SDS011;61064;51.654;5.476;2023-06-22T07:26:50;21.45;;;13.65;;
72920;SDS011;61064;51.654;5.476;2023-06-22T07:29:19;19.10;;;12.77;;
72920;SDS011;61064;51.654;5.476;2023-06-22T07:31:46;19.75;;;12.00;;
72920;SDS011;61064;51.654;5.476;2023-06-22T07:34:12;18.95;;;12.80;;
72920;SDS011;61064;51.654;5.476;2023-06-22T07:36:38;21.40;;;12.38;;
72920;SDS011;61064;51.654;5.476;2023-06-22T07:39:03;19.43;;;11.53;;
72920;SDS011;61064;51.654;5.476;2023-06-22T07:41:29;18.53;;;12.30;;
72920;SDS011;61064;51.654;5.476;2023-06-22T07:43:55;18.85;;;11.45;;
72920;SDS011;61064;51.654;5.476;2023-06-22T07:46:21;18.87;;;11.43;;
72920;SDS011;61064;51.654;5.476;2023-06-22T07:48:47;17.97;;;11.33;;
72920;SDS011;61064;51.654;5.476;2023-06-22T07:51:12;15.93;;;10.43;;
72920;SDS011;61064;51.654;5.476;2023-06-22T07:53:38;17.40;;;10.40;;
72920;SDS011;61064;51.654;5.476;2023-06-22T07:56:05;13.85;;;9.57;;
72920;SDS011;61064;51.654;5.476;2023-06-22T07:58:32;14.88;;;9.00;;
72920;SDS011;61064;51.654;5.476;2023-06-22T08:00:58;16.47;;;9.50;;
72920;SDS011;61064;51.654;5.476;2023-06-22T08:03:24;14.93;;;9.10;;
72920;SDS011;61064;51.654;5.476;2023-06-22T08:05:49;14.27;;;8.40;;
72920;SDS011;61064;51.654;5.476;2023-06-22T08:08:15;14.77;;;8.77;;
72920;SDS011;61064;51.654;5.476;2023-06-22T08:10:40;15.67;;;9.40;;
72920;SDS011;61064;51.654;5.476;2023-06-22T08:13:07;15.43;;;9.25;;
72920;SDS011;61064;51.654;5.476;2023-06-22T08:15:33;15.70;;;9.30;;
72920;SDS011;61064;51.654;5.476;2023-06-22T08:17:58;15.98;;;10.07;;
72920;SDS011;61064;51.654;5.476;2023-06-22T08:20:25;14.60;;;9.82;;
72920;SDS011;61064;51.654;5.476;2023-06-22T08:22:52;17.20;;;10.17;;
72920;SDS011;61064;51.654;5.476;2023-06-22T08:25:19;15.95;;;9.50;;
72920;SDS011;61064;51.654;5.476;2023-06-22T08:27:45;14.40;;;8.93;;
72920;SDS011;61064;51.654;5.476;2023-06-22T08:30:12;15.57;;;9.00;;
72920;SDS011;61064;51.654;5.476;2023-06-22T08:32:37;14.80;;;8.67;;
72920;SDS011;61064;51.654;5.476;2023-06-22T08:35:02;13.63;;;8.80;;
72920;SDS011;61064;51.654;5.476;2023-06-22T08:37:28;13.47;;;8.53;;
72920;SDS011;61064;51.654;5.476;2023-06-22T08:40:01;12.63;;;8.15;;
72920;SDS011;61064;51.654;5.476;2023-06-22T08:42:30;15.00;;;8.52;;
72920;SDS011;61064;51.654;5.476;2023-06-22T08:44:56;13.57;;;7.90;;
72920;SDS011;61064;51.654;5.476;2023-06-22T08:47:22;13.27;;;8.15;;
72920;SDS011;61064;51.654;5.476;2023-06-22T08:49:48;13.30;;;7.93;;
72920;SDS011;61064;51.654;5.476;2023-06-22T08:52:13;14.07;;;7.78;;
72920;SDS011;61064;51.654;5.476;2023-06-22T08:54:39;11.87;;;7.83;;
72920;SDS011;61064;51.654;5.476;2023-06-22T08:57:04;14.17;;;7.87;;
72920;SDS011;61064;51.654;5.476;2023-06-22T08:59:30;12.68;;;8.38;;
72920;SDS011;61064;51.654;5.476;2023-06-22T09:01:55;13.27;;;7.67;;
72920;SDS011;61064;51.654;5.476;2023-06-22T09:04:21;12.32;;;7.10;;
72920;SDS011;61064;51.654;5.476;2023-06-22T09:06:47;12.63;;;6.80;;
72920;SDS011;61064;51.654;5.476;2023-06-22T09:09:13;12.60;;;6.88;;
72920;SDS011;61064;51.654;5.476;2023-06-22T09:11:39;11.93;;;7.28;;
72920;SDS011;61064;51.654;5.476;2023-06-22T09:14:05;11.57;;;7.13;;
72920;SDS011;61064;51.654;5.476;2023-06-22T09:16:30;12.33;;;6.73;;
72920;SDS011;61064;51.654;5.476;2023-06-22T09:18:55;12.57;;;7.70;;
72920;SDS011;61064;51.654;5.476;2023-06-22T09:21:21;13.10;;;7.27;;
72920;SDS011;61064;51.654;5.476;2023-06-22T09:23:46;15.00;;;7.93;;
72920;SDS011;61064;51.654;5.476;2023-06-22T09:26:15;14.85;;;7.22;;
72920;SDS011;61064;51.654;5.476;2023-06-22T09:28:40;12.13;;;7.50;;
72920;SDS011;61064;51.654;5.476;2023-06-22T09:31:06;13.10;;;7.60;;
72920;SDS011;61064;51.654;5.476;2023-06-22T09:33:32;12.80;;;8.18;;
72920;SDS011;61064;51.654;5.476;2023-06-22T09:35:57;12.37;;;7.73;;
72920;SDS011;61064;51.654;5.476;2023-06-22T09:38:23;13.23;;;8.48;;
72920;SDS011;61064;51.654;5.476;2023-06-22T09:40:48;12.73;;;7.90;;
72920;SDS011;61064;51.654;5.476;2023-06-22T09:43:14;14.17;;;7.83;;
72920;SDS011;61064;51.654;5.476;2023-06-22T09:45:39;12.60;;;7.97;;
72920;SDS011;61064;51.654;5.476;2023-06-22T09:48:04;12.77;;;8.50;;
72920;SDS011;61064;51.654;5.476;2023-06-22T09:50:30;12.07;;;7.80;;
72920;SDS011;61064;51.654;5.476;2023-06-22T09:52:55;14.80;;;8.25;;
72920;SDS011;61064;51.654;5.476;2023-06-22T09:55:21;13.70;;;8.67;;
72920;SDS011;61064;51.654;5.476;2023-06-22T09:57:47;14.23;;;9.40;;
72920;SDS011;61064;51.654;5.476;2023-06-22T10:00:14;15.93;;;8.90;;
72920;SDS011;61064;51.654;5.476;2023-06-22T10:02:41;15.88;;;9.40;;
72920;SDS011;61064;51.654;5.476;2023-06-22T10:05:07;17.50;;;10.17;;
72920;SDS011;61064;51.654;5.476;2023-06-22T10:07:33;18.60;;;9.90;;
72920;SDS011;61064;51.654;5.476;2023-06-22T10:09:58;15.43;;;9.37;;
72920;SDS011;61064;51.654;5.476;2023-06-22T10:12:24;17.00;;;10.60;;
72920;SDS011;61064;51.654;5.476;2023-06-22T10:14:49;18.87;;;10.70;;
72920;SDS011;61064;51.654;5.476;2023-06-22T10:17:14;15.23;;;10.23;;
72920;SDS011;61064;51.654;5.476;2023-06-22T10:19:40;19.83;;;10.70;;
72920;SDS011;61064;51.654;5.476;2023-06-22T10:22:07;17.30;;;10.23;;
72920;SDS011;61064;51.654;5.476;2023-06-22T10:24:32;18.23;;;10.53;;
72920;SDS011;61064;51.654;5.476;2023-06-22T10:26:57;18.83;;;10.87;;
72920;SDS011;61064;51.654;5.476;2023-06-22T10:29:23;17.43;;;10.07;;
72920;SDS011;61064;51.654;5.476;2023-06-22T10:31:48;15.82;;;10.15;;
72920;SDS011;61064;51.654;5.476;2023-06-22T10:34:13;15.63;;;9.87;;
72920;SDS011;61064;51.654;5.476;2023-06-22T10:36:39;15.90;;;9.50;;
72920;SDS011;61064;51.654;5.476;2023-06-22T10:39:04;16.53;;;9.53;;
72920;SDS011;61064;51.654;5.476;2023-06-22T10:41:30;14.63;;;9.73;;
72920;SDS011;61064;51.654;5.476;2023-06-22T10:43:56;15.17;;;9.70;;
72920;SDS011;61064;51.654;5.476;2023-06-22T10:46:24;13.80;;;9.50;;
72920;SDS011;61064;51.654;5.476;2023-06-22T10:48:50;14.20;;;9.57;;
72920;SDS011;61064;51.654;5.476;2023-06-22T10:51:19;14.50;;;9.13;;
72920;SDS011;61064;51.654;5.476;2023-06-22T10:53:44;13.18;;;8.73;;
72920;SDS011;61064;51.654;5.476;2023-06-22T10:56:09;14.13;;;8.87;;
72920;SDS011;61064;51.654;5.476;2023-06-22T10:58:35;16.37;;;9.17;;
72920;SDS011;61064;51.654;5.476;2023-06-22T11:01:00;15.30;;;8.67;;
72920;SDS011;61064;51.654;5.476;2023-06-22T11:03:25;14.23;;;8.20;;
72920;SDS011;61064;51.654;5.476;2023-06-22T11:05:51;12.27;;;8.07;;
72920;SDS011;61064;51.654;5.476;2023-06-22T11:08:16;15.83;;;8.23;;
72920;SDS011;61064;51.654;5.476;2023-06-22T11:10:42;13.02;;;8.25;;
72920;SDS011;61064;51.654;5.476;2023-06-22T11:13:08;13.07;;;8.07;;
72920;SDS011;61064;51.654;5.476;2023-06-22T11:15:34;16.70;;;8.52;;
72920;SDS011;61064;51.654;5.476;2023-06-22T11:18:00;14.00;;;8.10;;
72920;SDS011;61064;51.654;5.476;2023-06-22T11:20:25;14.45;;;8.00;;
72920;SDS011;61064;51.654;5.476;2023-06-22T11:22:51;14.53;;;8.70;;
72920;SDS011;61064;51.654;5.476;2023-06-22T11:25:16;14.00;;;8.50;;
72920;SDS011;61064;51.654;5.476;2023-06-22T11:27:41;12.80;;;9.47;;
72920;SDS011;61064;51.654;5.476;2023-06-22T11:30:07;14.13;;;9.60;;
72920;SDS011;61064;51.654;5.476;2023-06-22T11:32:33;19.65;;;9.90;;
72920;SDS011;61064;51.654;5.476;2023-06-22T11:34:59;18.10;;;10.82;;
72920;SDS011;61064;51.654;5.476;2023-06-22T11:37:24;16.37;;;10.23;;
72920;SDS011;61064;51.654;5.476;2023-06-22T11:39:49;16.60;;;10.60;;
72920;SDS011;61064;51.654;5.476;2023-06-22T11:42:15;16.43;;;11.50;;
72920;SDS011;61064;51.654;5.476;2023-06-22T11:44:41;19.13;;;11.27;;
72920;SDS011;61064;51.654;5.476;2023-06-22T11:47:08;19.27;;;11.93;;
72920;SDS011;61064;51.654;5.476;2023-06-22T11:49:33;21.33;;;12.33;;
72920;SDS011;61064;51.654;5.476;2023-06-22T11:51:59;22.43;;;13.17;;
72920;SDS011;61064;51.654;5.476;2023-06-22T11:54:24;19.57;;;13.07;;
72920;SDS011;61064;51.654;5.476;2023-06-22T11:56:50;25.70;;;14.03;;
72920;SDS011;61064;51.654;5.476;2023-06-22T11:59:15;20.40;;;13.07;;
72920;SDS011;61064;51.654;5.476;2023-06-22T12:01:40;21.87;;;14.17;;
72920;SDS011;61064;51.654;5.476;2023-06-22T12:04:06;20.87;;;13.83;;
72920;SDS011;61064;51.654;5.476;2023-06-22T12:06:32;23.10;;;14.20;;
72920;SDS011;61064;51.654;5.476;2023-06-22T12:08:58;19.45;;;13.85;;
72920;SDS011;61064;51.654;5.476;2023-06-22T12:11:23;24.63;;;15.37;;
72920;SDS011;61064;51.654;5.476;2023-06-22T12:13:49;23.03;;;15.80;;
72920;SDS011;61064;51.654;5.476;2023-06-22T12:16:14;28.43;;;17.47;;
72920;SDS011;61064;51.654;5.476;2023-06-22T12:18:40;23.47;;;14.67;;
72920;SDS011;61064;51.654;5.476;2023-06-22T12:21:05;24.63;;;16.50;;
72920;SDS011;61064;51.654;5.476;2023-06-22T12:23:30;24.63;;;15.97;;
72920;SDS011;61064;51.654;5.476;2023-06-22T12:25:56;24.07;;;16.87;;
72920;SDS011;61064;51.654;5.476;2023-06-22T12:28:21;22.17;;;16.43;;
72920;SDS011;61064;51.654;5.476;2023-06-22T12:30:48;24.48;;;16.42;;
72920;SDS011;61064;51.654;5.476;2023-06-22T12:33:13;22.83;;;16.17;;
72920;SDS011;61064;51.654;5.476;2023-06-22T12:35:39;23.17;;;14.53;;
72920;SDS011;61064;51.654;5.476;2023-06-22T12:38:04;23.00;;;15.27;;
72920;SDS011;61064;51.654;5.476;2023-06-22T12:40:32;21.70;;;15.00;;
72920;SDS011;61064;51.654;5.476;2023-06-22T12:42:58;21.52;;;15.43;;
72920;SDS011;61064;51.654;5.476;2023-06-22T12:45:26;21.50;;;14.43;;
72920;SDS011;61064;51.654;5.476;2023-06-22T12:47:54;23.20;;;15.07;;
72920;SDS011;61064;51.654;5.476;2023-06-22T12:50:19;20.67;;;14.57;;
72920;SDS011;61064;51.654;5.476;2023-06-22T12:52:44;23.43;;;14.87;;
72920;SDS011;61064;51.654;5.476;2023-06-22T12:55:10;19.23;;;13.33;;
72920;SDS011;61064;51.654;5.476;2023-06-22T12:57:35;18.80;;;12.70;;
72920;SDS011;61064;51.654;5.476;2023-06-22T13:00:00;19.67;;;13.23;;
72920;SDS011;61064;51.654;5.476;2023-06-22T13:02:26;20.03;;;12.80;;
72920;SDS011;61064;51.654;5.476;2023-06-22T13:04:51;19.60;;;13.30;;
72920;SDS011;61064;51.654;5.476;2023-06-22T13:07:16;19.27;;;13.20;;
72920;SDS011;61064;51.654;5.476;2023-06-22T13:09:42;20.57;;;12.30;;
72920;SDS011;61064;51.654;5.476;2023-06-22T13:12:07;19.02;;;13.05;;
72920;SDS011;61064;51.654;5.476;2023-06-22T13:14:33;21.00;;;12.60;;
72920;SDS011;61064;51.654;5.476;2023-06-22T13:16:58;20.43;;;13.33;;
72920;SDS011;61064;51.654;5.476;2023-06-22T13:19:24;19.20;;;13.17;;
72920;SDS011;61064;51.654;5.476;2023-06-22T13:21:49;20.23;;;13.13;;
72920;SDS011;61064;51.654;5.476;2023-06-22T13:24:15;18.27;;;12.80;;
72920;SDS011;61064;51.654;5.476;2023-06-22T13:26:41;20.08;;;13.48;;
72920;SDS011;61064;51.654;5.476;2023-06-22T13:29:06;19.57;;;13.57;;
72920;SDS011;61064;51.654;5.476;2023-06-22T13:31:32;21.17;;;13.80;;
72920;SDS011;61064;51.654;5.476;2023-06-22T13:33:57;19.03;;;13.07;;
72920;SDS011;61064;51.654;5.476;2023-06-22T13:36:22;19.27;;;13.37;;
72920;SDS011;61064;51.654;5.476;2023-06-22T13:38:48;18.10;;;13.07;;
72920;SDS011;61064;51.654;5.476;2023-06-22T13:41:14;18.95;;;13.10;;
72920;SDS011;61064;51.654;5.476;2023-06-22T13:43:39;17.20;;;12.93;;
72920;SDS011;61064;51.654;5.476;2023-06-22T13:46:05;20.17;;;13.27;;
72920;SDS011;61064;51.654;5.476;2023-06-22T13:48:30;18.57;;;13.27;;
72920;SDS011;61064;51.654;5.476;2023-06-22T13:50:55;21.00;;;14.17;;
72920;SDS011;61064;51.654;5.476;2023-06-22T13:53:21;20.00;;;14.93;;
72920;SDS011;61064;51.654;5.476;2023-06-22T13:55:46;19.90;;;14.47;;
72920;SDS011;61064;51.654;5.476;2023-06-22T13:58:12;18.45;;;14.07;;
72920;SDS011;61064;51.654;5.476;2023-06-22T14:00:38;20.67;;;14.63;;
72920;SDS011;61064;51.654;5.476;2023-06-22T14:03:03;21.13;;;15.07;;
72920;SDS011;61064;51.654;5.476;2023-06-22T14:05:28;22.77;;;15.83;;
72920;SDS011;61064;51.654;5.476;2023-06-22T14:07:54;21.17;;;15.10;;
72920;SDS011;61064;51.654;5.476;2023-06-22T14:10:19;21.10;;;15.37;;
72920;SDS011;61064;51.654;5.476;2023-06-22T14:12:45;18.50;;;14.02;;
72920;SDS011;61064;51.654;5.476;2023-06-22T14:15:10;17.77;;;13.00;;
72920;SDS011;61064;51.654;5.476;2023-06-22T14:17:36;20.90;;;14.27;;
72920;SDS011;61064;51.654;5.476;2023-06-22T14:20:01;21.43;;;14.07;;
72920;SDS011;61064;51.654;5.476;2023-06-22T14:22:28;21.67;;;15.30;;
72920;SDS011;61064;51.654;5.476;2023-06-22T14:24:54;24.53;;;16.93;;
72920;SDS011;61064;51.654;5.476;2023-06-22T14:27:22;20.83;;;15.27;;